sensor_id;sensor_type;location;lat;lon;timestamp;pressure;altitude;pressure_sealevel;temperature;humidity
10079;BME280;5078;42.544;22.966;2023-05-02T00:01:06;94209.50;;;9.20;100.00
10079;BME280;5078;42.544;22.966;2023-05-02T00:03:33;94204.56;;;9.25;100.00
10079;BME280;5078;42.544;22.966;2023-05-02T00:06:01;94201.19;;;9.49;100.00
10079;BME280;5078;42.544;22.966;2023-05-02T00:08:27;94196.47;;;9.77;100.00
10079;BME280;5078;42.544;22.966;2023-05-02T00:10:54;94195.25;;;9.55;100.00
10079;BME280;5078;42.544;22.966;2023-05-02T00:13:21;94195.25;;;9.63;100.00
10079;BME280;5078;42.544;22.966;2023-05-02T00:15:49;94191.66;;;9.72;100.00
10079;BME280;5078;42.544;22.966;2023-05-02T00:18:16;94192.50;;;9.89;100.00
10079;BME280;5078;42.544;22.966;2023-05-02T00:20:42;94186.72;;;10.10;100.00
10079;BME280;5078;42.544;22.966;2023-05-02T00:23:09;94192.00;;;9.86;100.00
10079;BME280;5078;42.544;22.966;2023-05-02T00:25:43;94192.25;;;9.50;100.00
10079;BME280;5078;42.544;22.966;2023-05-02T00:28:09;94207.59;;;9.38;100.00
10079;BME280;5078;42.544;22.966;2023-05-02T00:30:41;94209.00;;;9.16;100.00
10079;BME280;5078;42.544;22.966;2023-05-02T00:33:09;94198.38;;;9.08;100.00
10079;BME280;5078;42.544;22.966;2023-05-02T00:35:36;94210.31;;;9.12;100.00
10079;BME280;5078;42.544;22.966;2023-05-02T00:38:03;94219.94;;;9.21;100.00
10079;BME280;5078;42.544;22.966;2023-05-02T00:40:30;94217.94;;;9.23;100.00
10079;BME280;5078;42.544;22.966;2023-05-02T00:42:57;94210.78;;;9.07;100.00
10079;BME280;5078;42.544;22.966;2023-05-02T00:45:24;94217.06;;;9.06;100.00
10079;BME280;5078;42.544;22.966;2023-05-02T00:47:50;94216.59;;;9.11;100.00
10079;BME280;5078;42.544;22.966;2023-05-02T00:50:18;94213.16;;;9.19;100.00
10079;BME280;5078;42.544;22.966;2023-05-02T00:52:46;94220.44;;;9.25;100.00
10079;BME280;5078;42.544;22.966;2023-05-02T00:55:12;94227.25;;;9.36;100.00
10079;BME280;5078;42.544;22.966;2023-05-02T00:57:39;94224.78;;;9.00;100.00
10079;BME280;5078;42.544;22.966;2023-05-02T01:00:07;94213.69;;;9.31;100.00
10079;BME280;5078;42.544;22.966;2023-05-02T01:02:43;94195.66;;;8.92;100.00
10079;BME280;5078;42.544;22.966;2023-05-02T01:05:16;94220.00;;;9.38;100.00
10079;BME280;5078;42.544;22.966;2023-05-02T01:08:09;94219.66;;;9.33;100.00
10079;BME280;5078;42.544;22.966;2023-05-02T01:10:47;94211.72;;;9.33;100.00
10079;BME280;5078;42.544;22.966;2023-05-02T01:13:19;94210.75;;;9.34;100.00
10079;BME280;5078;42.544;22.966;2023-05-02T01:15:48;94220.06;;;9.12;100.00
10079;BME280;5078;42.544;22.966;2023-05-02T01:18:20;94212.81;;;9.14;100.00
10079;BME280;5078;42.544;22.966;2023-05-02T01:20:55;94210.19;;;9.22;100.00
10079;BME280;5078;42.544;22.966;2023-05-02T01:23:31;94221.09;;;9.19;100.00
10079;BME280;5078;42.544;22.966;2023-05-02T01:26:09;94223.53;;;8.86;100.00
10079;BME280;5078;42.544;22.966;2023-05-02T01:28:59;94222.13;;;8.92;100.00
10079;BME280;5078;42.544;22.966;2023-05-02T01:31:27;94227.19;;;8.85;100.00
10079;BME280;5078;42.544;22.966;2023-05-02T01:33:55;94222.22;;;8.82;100.00
10079;BME280;5078;42.544;22.966;2023-05-02T01:36:26;94230.38;;;8.45;100.00
10079;BME280;5078;42.544;22.966;2023-05-02T01:38:55;94224.56;;;8.23;100.00
10079;BME280;5078;42.544;22.966;2023-05-02T01:41:25;94224.03;;;8.37;100.00
10079;BME280;5078;42.544;22.966;2023-05-02T01:43:55;94224.78;;;8.48;100.00
10079;BME280;5078;42.544;22.966;2023-05-02T01:46:24;94228.16;;;8.58;100.00
10079;BME280;5078;42.544;22.966;2023-05-02T01:48:52;94231.13;;;8.55;100.00
10079;BME280;5078;42.544;22.966;2023-05-02T01:51:22;94229.75;;;8.69;100.00
10079;BME280;5078;42.544;22.966;2023-05-02T01:53:51;94231.53;;;8.68;100.00
10079;BME280;5078;42.544;22.966;2023-05-02T01:56:20;94222.69;;;8.77;100.00
10079;BME280;5078;42.544;22.966;2023-05-02T01:58:47;94232.84;;;8.64;100.00
10079;BME280;5078;42.544;22.966;2023-05-02T02:01:17;94226.06;;;8.61;100.00
10079;BME280;5078;42.544;22.966;2023-05-02T02:03:44;94221.69;;;8.52;100.00
10079;BME280;5078;42.544;22.966;2023-05-02T02:06:12;94221.91;;;8.59;100.00
10079;BME280;5078;42.544;22.966;2023-05-02T02:08:39;94216.53;;;8.69;100.00
10079;BME280;5078;42.544;22.966;2023-05-02T02:11:08;94214.97;;;8.84;100.00
10079;BME280;5078;42.544;22.966;2023-05-02T02:13:42;94216.34;;;8.96;100.00
10079;BME280;5078;42.544;22.966;2023-05-02T02:16:11;94223.00;;;8.74;100.00
10079;BME280;5078;42.544;22.966;2023-05-02T02:18:41;94213.28;;;8.83;100.00
10079;BME280;5078;42.544;22.966;2023-05-02T02:21:10;94213.50;;;8.90;100.00
10079;BME280;5078;42.544;22.966;2023-05-02T02:23:38;94220.97;;;8.94;100.00
10079;BME280;5078;42.544;22.966;2023-05-02T02:26:08;94208.81;;;8.83;100.00
10079;BME280;5078;42.544;22.966;2023-05-02T02:28:35;94219.63;;;8.64;100.00
10079;BME280;5078;42.544;22.966;2023-05-02T02:31:02;94222.50;;;8.53;100.00
10079;BME280;5078;42.544;22.966;2023-05-02T02:33:30;94224.03;;;8.37;100.00
10079;BME280;5078;42.544;22.966;2023-05-02T02:36:04;94220.88;;;8.16;100.00
10079;BME280;5078;42.544;22.966;2023-05-02T02:38:37;94216.88;;;8.12;100.00
10079;BME280;5078;42.544;22.966;2023-05-02T02:41:12;94221.09;;;8.23;100.00
10079;BME280;5078;42.544;22.966;2023-05-02T02:43:44;94206.75;;;8.25;100.00
10079;BME280;5078;42.544;22.966;2023-05-02T02:46:25;94227.88;;;8.43;100.00
10079;BME280;5078;42.544;22.966;2023-05-02T02:48:58;94230.81;;;8.58;100.00
10079;BME280;5078;42.544;22.966;2023-05-02T02:51:38;94223.19;;;8.37;100.00
10079;BME280;5078;42.544;22.966;2023-05-02T02:54:13;94224.66;;;8.31;100.00
10079;BME280;5078;42.544;22.966;2023-05-02T02:56:49;94226.03;;;7.99;100.00
10079;BME280;5078;42.544;22.966;2023-05-02T02:59:22;94230.00;;;8.04;100.00
10079;BME280;5078;42.544;22.966;2023-05-02T03:01:59;94224.94;;;8.28;100.00
10079;BME280;5078;42.544;22.966;2023-05-02T03:04:29;94222.31;;;8.10;100.00
10079;BME280;5078;42.544;22.966;2023-05-02T03:06:59;94228.28;;;8.12;100.00
10079;BME280;5078;42.544;22.966;2023-05-02T03:09:25;94230.16;;;8.02;100.00
10079;BME280;5078;42.544;22.966;2023-05-02T03:11:54;94230.97;;;7.67;100.00
10079;BME280;5078;42.544;22.966;2023-05-02T03:14:21;94227.53;;;7.84;100.00
10079;BME280;5078;42.544;22.966;2023-05-02T03:16:48;94227.09;;;7.89;100.00
10079;BME280;5078;42.544;22.966;2023-05-02T03:19:16;94238.41;;;7.26;100.00
10079;BME280;5078;42.544;22.966;2023-05-02T03:21:42;94237.47;;;7.27;100.00
10079;BME280;5078;42.544;22.966;2023-05-02T03:24:11;94240.13;;;7.45;100.00
10079;BME280;5078;42.544;22.966;2023-05-02T03:26:38;94240.47;;;7.60;100.00
10079;BME280;5078;42.544;22.966;2023-05-02T03:29:05;94233.63;;;7.67;100.00
10079;BME280;5078;42.544;22.966;2023-05-02T03:31:31;94233.78;;;7.83;100.00
10079;BME280;5078;42.544;22.966;2023-05-02T03:33:58;94229.84;;;7.87;100.00
10079;BME280;5078;42.544;22.966;2023-05-02T03:36:25;94235.75;;;7.99;100.00
10079;BME280;5078;42.544;22.966;2023-05-02T03:38:52;94243.56;;;7.73;100.00
10079;BME280;5078;42.544;22.966;2023-05-02T03:41:20;94244.50;;;7.82;100.00
10079;BME280;5078;42.544;22.966;2023-05-02T03:43:47;94241.41;;;7.86;100.00
10079;BME280;5078;42.544;22.966;2023-05-02T03:46:13;94253.19;;;7.92;100.00
10079;BME280;5078;42.544;22.966;2023-05-02T03:48:40;94244.72;;;8.06;100.00
10079;BME280;5078;42.544;22.966;2023-05-02T03:51:07;94240.97;;;8.09;100.00
10079;BME280;5078;42.544;22.966;2023-05-02T03:53:34;94242.91;;;8.07;100.00
10079;BME280;5078;42.544;22.966;2023-05-02T03:56:01;94255.19;;;8.16;100.00
10079;BME280;5078;42.544;22.966;2023-05-02T03:58:29;94256.19;;;8.15;100.00
10079;BME280;5078;42.544;22.966;2023-05-02T04:00:56;94260.88;;;8.39;100.00
10079;BME280;5078;42.544;22.966;2023-05-02T04:03:23;94249.44;;;8.38;100.00
10079;BME280;5078;42.544;22.966;2023-05-02T04:05:49;94254.38;;;8.15;100.00
10079;BME280;5078;42.544;22.966;2023-05-02T04:08:17;94258.34;;;8.73;100.00
10079;BME280;5078;42.544;22.966;2023-05-02T04:10:43;94260.16;;;8.73;100.00
10079;BME280;5078;42.544;22.966;2023-05-02T04:13:10;94256.88;;;9.05;100.00
10079;BME280;5078;42.544;22.966;2023-05-02T04:15:38;94255.84;;;9.66;100.00
10079;BME280;5078;42.544;22.966;2023-05-02T04:18:05;94258.88;;;9.80;100.00
10079;BME280;5078;42.544;22.966;2023-05-02T04:20:32;94258.50;;;10.50;100.00
10079;BME280;5078;42.544;22.966;2023-05-02T04:22:58;94254.34;;;10.55;100.00
10079;BME280;5078;42.544;22.966;2023-05-02T04:25:26;94266.25;;;11.09;99.74
10079;BME280;5078;42.544;22.966;2023-05-02T04:27:53;94262.63;;;10.61;100.00
10079;BME280;5078;42.544;22.966;2023-05-02T04:30:20;94261.47;;;11.04;100.00
10079;BME280;5078;42.544;22.966;2023-05-02T04:32:48;94270.31;;;11.44;96.62
10079;BME280;5078;42.544;22.966;2023-05-02T04:35:15;94265.81;;;11.44;92.85
10079;BME280;5078;42.544;22.966;2023-05-02T04:37:42;94242.00;;;11.20;94.43
10079;BME280;5078;42.544;22.966;2023-05-02T04:40:09;94265.69;;;11.77;91.53
10079;BME280;5078;42.544;22.966;2023-05-02T04:42:36;94259.91;;;12.13;88.99
10079;BME280;5078;42.544;22.966;2023-05-02T04:45:04;94268.72;;;12.37;89.28
10079;BME280;5078;42.544;22.966;2023-05-02T04:47:31;94257.44;;;12.35;88.08
10079;BME280;5078;42.544;22.966;2023-05-02T04:49:59;94262.97;;;12.48;89.08
10079;BME280;5078;42.544;22.966;2023-05-02T04:52:26;94269.66;;;12.67;87.96
10079;BME280;5078;42.544;22.966;2023-05-02T04:54:52;94264.53;;;13.03;86.52
10079;BME280;5078;42.544;22.966;2023-05-02T04:57:19;94267.84;;;13.20;84.80
10079;BME280;5078;42.544;22.966;2023-05-02T04:59:46;94265.72;;;13.38;83.32
10079;BME280;5078;42.544;22.966;2023-05-02T05:02:13;94260.94;;;13.34;83.66
10079;BME280;5078;42.544;22.966;2023-05-02T05:04:40;94262.66;;;13.86;80.75
10079;BME280;5078;42.544;22.966;2023-05-02T05:07:08;94259.78;;;14.39;76.99
10079;BME280;5078;42.544;22.966;2023-05-02T05:09:34;94259.19;;;13.41;81.68
10079;BME280;5078;42.544;22.966;2023-05-02T05:12:01;94259.81;;;14.24;77.65
10079;BME280;5078;42.544;22.966;2023-05-02T05:14:28;94265.75;;;14.41;76.75
10079;BME280;5078;42.544;22.966;2023-05-02T05:16:55;94259.94;;;14.74;74.50
10079;BME280;5078;42.544;22.966;2023-05-02T05:19:22;94239.09;;;14.84;72.72
10079;BME280;5078;42.544;22.966;2023-05-02T05:21:49;94263.06;;;15.55;69.44
10079;BME280;5078;42.544;22.966;2023-05-02T05:24:17;94267.66;;;15.12;70.38
10079;BME280;5078;42.544;22.966;2023-05-02T05:26:43;94266.75;;;14.98;72.16
10079;BME280;5078;42.544;22.966;2023-05-02T05:29:10;94271.19;;;15.47;70.10
10079;BME280;5078;42.544;22.966;2023-05-02T05:31:37;94265.25;;;16.21;65.29
10079;BME280;5078;42.544;22.966;2023-05-02T05:34:04;94263.03;;;16.38;64.29
10079;BME280;5078;42.544;22.966;2023-05-02T05:36:31;94260.56;;;16.50;62.18
10079;BME280;5078;42.544;22.966;2023-05-02T05:38:57;94255.69;;;16.73;61.13
10079;BME280;5078;42.544;22.966;2023-05-02T05:41:25;94268.16;;;15.85;65.82
10079;BME280;5078;42.544;22.966;2023-05-02T05:43:52;94267.56;;;16.44;61.83
10079;BME280;5078;42.544;22.966;2023-05-02T05:46:24;94265.34;;;16.00;64.34
10079;BME280;5078;42.544;22.966;2023-05-02T05:48:51;94272.75;;;15.63;65.60
10079;BME280;5078;42.544;22.966;2023-05-02T05:51:18;94272.47;;;16.34;63.59
10079;BME280;5078;42.544;22.966;2023-05-02T05:53:45;94270.16;;;16.92;60.94
10079;BME280;5078;42.544;22.966;2023-05-02T05:56:12;94265.78;;;17.71;58.30
10079;BME280;5078;42.544;22.966;2023-05-02T05:58:41;94263.63;;;18.13;56.51
10079;BME280;5078;42.544;22.966;2023-05-02T06:01:08;94263.47;;;18.01;56.31
10079;BME280;5078;42.544;22.966;2023-05-02T06:03:35;94266.81;;;17.83;57.09
10079;BME280;5078;42.544;22.966;2023-05-02T06:06:03;94259.16;;;17.87;57.68
10079;BME280;5078;42.544;22.966;2023-05-02T06:08:30;94266.88;;;17.17;60.75
10079;BME280;5078;42.544;22.966;2023-05-02T06:10:57;94262.72;;;17.61;60.38
10079;BME280;5078;42.544;22.966;2023-05-02T06:13:23;94261.84;;;17.87;58.97
10079;BME280;5078;42.544;22.966;2023-05-02T06:15:52;94261.97;;;18.12;57.12
10079;BME280;5078;42.544;22.966;2023-05-02T06:18:19;94262.59;;;18.14;57.15
10079;BME280;5078;42.544;22.966;2023-05-02T06:20:46;94250.75;;;18.67;56.44
10079;BME280;5078;42.544;22.966;2023-05-02T06:23:12;94253.31;;;18.93;54.37
10079;BME280;5078;42.544;22.966;2023-05-02T06:25:39;94259.09;;;18.52;56.17
10079;BME280;5078;42.544;22.966;2023-05-02T06:28:06;94253.94;;;19.21;53.25
10079;BME280;5078;42.544;22.966;2023-05-02T06:30:33;94249.50;;;18.76;52.72
10079;BME280;5078;42.544;22.966;2023-05-02T06:33:04;94257.75;;;17.78;56.88
10079;BME280;5078;42.544;22.966;2023-05-02T06:35:31;94253.44;;;18.35;54.96
10079;BME280;5078;42.544;22.966;2023-05-02T06:37:57;94247.03;;;19.31;53.40
10079;BME280;5078;42.544;22.966;2023-05-02T06:40:24;94252.22;;;19.76;51.21
10079;BME280;5078;42.544;22.966;2023-05-02T06:42:51;94252.59;;;19.80;51.43
10079;BME280;5078;42.544;22.966;2023-05-02T06:45:18;94261.47;;;19.37;52.59
10079;BME280;5078;42.544;22.966;2023-05-02T06:47:44;94253.78;;;19.84;49.99
10079;BME280;5078;42.544;22.966;2023-05-02T06:50:12;94264.81;;;20.19;49.07
10079;BME280;5078;42.544;22.966;2023-05-02T06:52:39;94251.16;;;20.33;48.68
10079;BME280;5078;42.544;22.966;2023-05-02T06:55:07;94259.59;;;20.36;48.31
10079;BME280;5078;42.544;22.966;2023-05-02T06:57:33;94260.22;;;19.83;49.72
10079;BME280;5078;42.544;22.966;2023-05-02T07:00:00;94263.66;;;20.45;48.37
10079;BME280;5078;42.544;22.966;2023-05-02T07:02:27;94263.97;;;20.56;48.51
10079;BME280;5078;42.544;22.966;2023-05-02T07:04:54;94268.53;;;20.55;48.25
10079;BME280;5078;42.544;22.966;2023-05-02T07:07:22;94256.28;;;20.71;47.26
10079;BME280;5078;42.544;22.966;2023-05-02T07:09:49;94268.72;;;20.54;47.71
10079;BME280;5078;42.544;22.966;2023-05-02T07:12:15;94267.00;;;19.42;49.87
10079;BME280;5078;42.544;22.966;2023-05-02T07:14:42;94271.47;;;20.17;49.82
10079;BME280;5078;42.544;22.966;2023-05-02T07:17:11;94267.47;;;20.56;49.00
10079;BME280;5078;42.544;22.966;2023-05-02T07:19:37;94274.41;;;20.45;48.56
10079;BME280;5078;42.544;22.966;2023-05-02T07:22:04;94273.31;;;20.83;48.98
10079;BME280;5078;42.544;22.966;2023-05-02T07:24:33;94266.94;;;21.08;47.06
10079;BME280;5078;42.544;22.966;2023-05-02T07:26:59;94272.19;;;20.42;47.36
10079;BME280;5078;42.544;22.966;2023-05-02T07:29:27;94262.78;;;20.82;46.17
10079;BME280;5078;42.544;22.966;2023-05-02T07:31:54;94276.50;;;21.22;46.06
10079;BME280;5078;42.544;22.966;2023-05-02T07:34:21;94273.13;;;21.39;46.18
10079;BME280;5078;42.544;22.966;2023-05-02T07:36:47;94255.22;;;21.68;44.93
10079;BME280;5078;42.544;22.966;2023-05-02T07:39:14;94270.91;;;22.06;44.30
10079;BME280;5078;42.544;22.966;2023-05-02T07:41:42;94268.84;;;21.85;43.52
10079;BME280;5078;42.544;22.966;2023-05-02T07:44:09;94264.28;;;21.20;43.85
10079;BME280;5078;42.544;22.966;2023-05-02T07:46:36;94267.88;;;21.56;42.26
10079;BME280;5078;42.544;22.966;2023-05-02T07:49:03;94269.88;;;21.95;41.59
10079;BME280;5078;42.544;22.966;2023-05-02T07:51:30;94262.47;;;21.91;44.16
10079;BME280;5078;42.544;22.966;2023-05-02T07:53:56;94276.31;;;22.42;40.72
10079;BME280;5078;42.544;22.966;2023-05-02T07:56:23;94266.41;;;22.76;38.49
10079;BME280;5078;42.544;22.966;2023-05-02T07:58:51;94264.94;;;21.69;39.31
10079;BME280;5078;42.544;22.966;2023-05-02T08:01:18;94267.00;;;21.31;40.70
10079;BME280;5078;42.544;22.966;2023-05-02T08:03:45;94266.56;;;20.93;40.54
10079;BME280;5078;42.544;22.966;2023-05-02T08:06:12;94267.38;;;21.35;40.33
10079;BME280;5078;42.544;22.966;2023-05-02T08:08:39;94262.03;;;21.17;39.88
10079;BME280;5078;42.544;22.966;2023-05-02T08:11:06;94268.59;;;21.63;38.88
10079;BME280;5078;42.544;22.966;2023-05-02T08:13:33;94280.56;;;21.67;38.88
10079;BME280;5078;42.544;22.966;2023-05-02T08:16:01;94271.75;;;21.48;38.92
10079;BME280;5078;42.544;22.966;2023-05-02T08:18:28;94264.59;;;22.24;37.55
10079;BME280;5078;42.544;22.966;2023-05-02T08:20:55;94263.13;;;22.74;37.38
10079;BME280;5078;42.544;22.966;2023-05-02T08:23:22;94259.63;;;22.21;36.91
10079;BME280;5078;42.544;22.966;2023-05-02T08:25:49;94257.56;;;21.64;37.79
10079;BME280;5078;42.544;22.966;2023-05-02T08:28:16;94268.72;;;21.14;39.83
10079;BME280;5078;42.544;22.966;2023-05-02T08:30:44;94259.81;;;21.14;40.16
10079;BME280;5078;42.544;22.966;2023-05-02T08:33:12;94252.19;;;21.64;40.18
10079;BME280;5078;42.544;22.966;2023-05-02T08:35:38;94260.72;;;21.85;39.69
10079;BME280;5078;42.544;22.966;2023-05-02T08:38:06;94266.13;;;21.73;39.60
10079;BME280;5078;42.544;22.966;2023-05-02T08:40:35;94274.00;;;21.74;39.20
10079;BME280;5078;42.544;22.966;2023-05-02T08:43:02;94256.16;;;21.73;37.87
10079;BME280;5078;42.544;22.966;2023-05-02T08:45:33;94266.59;;;21.70;38.87
10079;BME280;5078;42.544;22.966;2023-05-02T08:48:05;94253.22;;;21.63;38.46
10079;BME280;5078;42.544;22.966;2023-05-02T08:50:36;94251.56;;;21.74;37.68
10079;BME280;5078;42.544;22.966;2023-05-02T08:53:03;94254.66;;;21.24;38.71
10079;BME280;5078;42.544;22.966;2023-05-02T08:55:31;94253.44;;;21.50;37.71
10079;BME280;5078;42.544;22.966;2023-05-02T08:57:59;94253.22;;;21.63;36.88
10079;BME280;5078;42.544;22.966;2023-05-02T09:00:29;94252.81;;;21.36;37.28
10079;BME280;5078;42.544;22.966;2023-05-02T09:03:05;94247.41;;;20.52;37.78
10079;BME280;5078;42.544;22.966;2023-05-02T09:05:39;94257.53;;;20.57;38.19
10079;BME280;5078;42.544;22.966;2023-05-02T09:08:06;94242.31;;;20.93;39.71
10079;BME280;5078;42.544;22.966;2023-05-02T09:10:34;94247.38;;;21.13;38.95
10079;BME280;5078;42.544;22.966;2023-05-02T09:13:32;94240.16;;;21.84;38.46
10079;BME280;5078;42.544;22.966;2023-05-02T09:16:00;94255.66;;;22.12;37.53
10079;BME280;5078;42.544;22.966;2023-05-02T09:18:28;94238.97;;;22.03;35.00
10079;BME280;5078;42.544;22.966;2023-05-02T09:20:58;94244.63;;;22.25;35.39
10079;BME280;5078;42.544;22.966;2023-05-02T09:23:36;94239.34;;;21.95;37.37
10079;BME280;5078;42.544;22.966;2023-05-02T09:26:15;94239.84;;;21.68;37.42
10079;BME280;5078;42.544;22.966;2023-05-02T09:28:43;94247.44;;;22.07;36.39
10079;BME280;5078;42.544;22.966;2023-05-02T09:31:12;94246.16;;;22.09;36.92
10079;BME280;5078;42.544;22.966;2023-05-02T09:33:39;94245.56;;;21.48;37.89
10079;BME280;5078;42.544;22.966;2023-05-02T09:36:09;94227.84;;;21.76;38.00
10079;BME280;5078;42.544;22.966;2023-05-02T09:38:37;94219.63;;;21.94;38.60
10079;BME280;5078;42.544;22.966;2023-05-02T09:41:04;94233.59;;;21.91;37.66
10079;BME280;5078;42.544;22.966;2023-05-02T09:44:05;94225.25;;;21.22;38.95
10079;BME280;5078;42.544;22.966;2023-05-02T09:46:38;94208.38;;;20.73;40.13
10079;BME280;5078;42.544;22.966;2023-05-02T09:49:06;94222.41;;;21.29;39.28
10079;BME280;5078;42.544;22.966;2023-05-02T09:51:34;94225.25;;;21.22;38.45
10079;BME280;5078;42.544;22.966;2023-05-02T09:54:01;94227.28;;;21.39;37.95
10079;BME280;5078;42.544;22.966;2023-05-02T09:56:28;94206.50;;;21.27;39.06
10079;BME280;5078;42.544;22.966;2023-05-02T09:59:13;94197.94;;;21.66;38.07
10079;BME280;5078;42.544;22.966;2023-05-02T10:01:40;94196.19;;;21.48;38.43
10079;BME280;5078;42.544;22.966;2023-05-02T10:04:09;94198.97;;;21.76;38.77
10079;BME280;5078;42.544;22.966;2023-05-02T10:06:42;94198.16;;;21.76;37.92
10079;BME280;5078;42.544;22.966;2023-05-02T10:09:10;94197.03;;;21.60;36.97
10079;BME280;5078;42.544;22.966;2023-05-02T10:11:38;94185.16;;;21.61;36.07
10079;BME280;5078;42.544;22.966;2023-05-02T10:14:08;94190.22;;;21.46;37.10
10079;BME280;5078;42.544;22.966;2023-05-02T10:16:36;94178.72;;;21.50;36.98
10079;BME280;5078;42.544;22.966;2023-05-02T10:19:08;94194.53;;;21.70;35.92
10079;BME280;5078;42.544;22.966;2023-05-02T10:21:35;94184.88;;;21.86;35.24
10079;BME280;5078;42.544;22.966;2023-05-02T10:24:04;94190.31;;;21.74;34.47
10079;BME280;5078;42.544;22.966;2023-05-02T10:26:33;94179.59;;;20.97;35.12
10079;BME280;5078;42.544;22.966;2023-05-02T10:29:00;94188.59;;;21.45;36.30
10079;BME280;5078;42.544;22.966;2023-05-02T10:31:31;94185.41;;;21.48;36.32
10079;BME280;5078;42.544;22.966;2023-05-02T10:33:59;94181.28;;;21.69;37.03
10079;BME280;5078;42.544;22.966;2023-05-02T10:36:28;94182.78;;;21.76;35.49
10079;BME280;5078;42.544;22.966;2023-05-02T10:38:56;94180.97;;;21.42;36.85
10079;BME280;5078;42.544;22.966;2023-05-02T10:41:25;94191.63;;;21.60;36.31
10079;BME280;5078;42.544;22.966;2023-05-02T10:44:08;94179.84;;;21.90;36.05
10079;BME280;5078;42.544;22.966;2023-05-02T10:46:37;94188.44;;;21.87;37.21
10079;BME280;5078;42.544;22.966;2023-05-02T10:49:06;94173.53;;;21.37;38.36
10079;BME280;5078;42.544;22.966;2023-05-02T10:51:42;94172.72;;;21.48;38.63
10079;BME280;5078;42.544;22.966;2023-05-02T10:54:19;94174.34;;;21.85;37.16
10079;BME280;5078;42.544;22.966;2023-05-02T10:57:05;94169.81;;;21.62;36.20
10079;BME280;5078;42.544;22.966;2023-05-02T10:59:34;94165.38;;;21.96;37.25
10079;BME280;5078;42.544;22.966;2023-05-02T11:02:02;94161.03;;;22.07;36.26
10079;BME280;5078;42.544;22.966;2023-05-02T11:05:00;94161.22;;;21.65;35.80
10079;BME280;5078;42.544;22.966;2023-05-02T11:07:28;94159.47;;;21.70;35.99
10079;BME280;5078;42.544;22.966;2023-05-02T11:10:23;94157.66;;;21.88;35.02
10079;BME280;5078;42.544;22.966;2023-05-02T11:12:52;94146.75;;;21.94;35.64
10079;BME280;5078;42.544;22.966;2023-05-02T11:15:55;94146.88;;;21.88;35.52
10079;BME280;5078;42.544;22.966;2023-05-02T11:18:25;94137.25;;;21.92;36.10
10079;BME280;5078;42.544;22.966;2023-05-02T11:20:51;94143.94;;;22.18;35.16
10079;BME280;5078;42.544;22.966;2023-05-02T11:23:39;94146.53;;;21.84;35.51
10079;BME280;5078;42.544;22.966;2023-05-02T11:26:20;94151.97;;;22.01;34.10
10079;BME280;5078;42.544;22.966;2023-05-02T11:28:48;94137.16;;;22.27;33.76
10079;BME280;5078;42.544;22.966;2023-05-02T11:31:52;94133.38;;;22.16;34.89
10079;BME280;5078;42.544;22.966;2023-05-02T11:34:19;94126.69;;;22.19;35.17
10079;BME280;5078;42.544;22.966;2023-05-02T11:36:46;94131.25;;;21.90;35.69
10079;BME280;5078;42.544;22.966;2023-05-02T11:39:18;94121.97;;;21.86;35.67
10079;BME280;5078;42.544;22.966;2023-05-02T11:41:45;94128.38;;;21.56;35.44
10079;BME280;5078;42.544;22.966;2023-05-02T11:44:16;94126.34;;;21.87;34.25
10079;BME280;5078;42.544;22.966;2023-05-02T11:46:43;94124.56;;;21.81;37.02
10079;BME280;5078;42.544;22.966;2023-05-02T11:49:10;94115.69;;;22.09;35.50
10079;BME280;5078;42.544;22.966;2023-05-02T11:51:38;94109.81;;;22.12;36.09
10079;BME280;5078;42.544;22.966;2023-05-02T11:54:06;94098.66;;;22.20;36.14
10079;BME280;5078;42.544;22.966;2023-05-02T11:56:33;94097.31;;;22.34;35.67
10079;BME280;5078;42.544;22.966;2023-05-02T11:59:01;94104.84;;;22.49;34.42
10079;BME280;5078;42.544;22.966;2023-05-02T12:01:29;94101.97;;;22.39;34.41
10079;BME280;5078;42.544;22.966;2023-05-02T12:04:03;94086.22;;;22.36;33.95
10079;BME280;5078;42.544;22.966;2023-05-02T12:06:31;94082.56;;;21.85;34.33
10079;BME280;5078;42.544;22.966;2023-05-02T12:09:09;94081.19;;;21.70;35.09
10079;BME280;5078;42.544;22.966;2023-05-02T12:11:36;94073.31;;;21.69;34.77
10079;BME280;5078;42.544;22.966;2023-05-02T12:14:03;94074.38;;;21.80;34.81
10079;BME280;5078;42.544;22.966;2023-05-02T12:16:32;94068.63;;;22.05;33.11
10079;BME280;5078;42.544;22.966;2023-05-02T12:19:00;94066.94;;;21.87;33.48
10079;BME280;5078;42.544;22.966;2023-05-02T12:21:29;94061.09;;;21.78;34.15
10079;BME280;5078;42.544;22.966;2023-05-02T12:23:57;94054.16;;;21.82;33.43
10079;BME280;5078;42.544;22.966;2023-05-02T12:26:25;94046.16;;;21.87;33.64
10079;BME280;5078;42.544;22.966;2023-05-02T12:28:54;94050.75;;;21.87;33.52
10079;BME280;5078;42.544;22.966;2023-05-02T12:31:23;94044.28;;;21.88;33.19
10079;BME280;5078;42.544;22.966;2023-05-02T12:33:51;94041.00;;;22.14;33.63
10079;BME280;5078;42.544;22.966;2023-05-02T12:36:22;94037.59;;;22.36;33.90
10079;BME280;5078;42.544;22.966;2023-05-02T12:38:48;94038.25;;;22.26;32.91
10079;BME280;5078;42.544;22.966;2023-05-02T12:41:17;94020.81;;;22.51;32.80
10079;BME280;5078;42.544;22.966;2023-05-02T12:43:45;94030.97;;;22.27;33.73
10079;BME280;5078;42.544;22.966;2023-05-02T12:46:12;94027.06;;;22.34;32.05
10079;BME280;5078;42.544;22.966;2023-05-02T12:48:39;94026.03;;;22.24;32.33
10079;BME280;5078;42.544;22.966;2023-05-02T12:51:19;94012.81;;;22.10;33.12
10079;BME280;5078;42.544;22.966;2023-05-02T12:53:46;94010.66;;;21.95;33.15
10079;BME280;5078;42.544;22.966;2023-05-02T12:56:13;94016.78;;;21.91;34.40
10079;BME280;5078;42.544;22.966;2023-05-02T12:58:45;94014.81;;;21.86;34.12
10079;BME280;5078;42.544;22.966;2023-05-02T13:01:12;94014.31;;;21.72;33.80
10079;BME280;5078;42.544;22.966;2023-05-02T13:03:39;94008.91;;;21.72;34.56
10079;BME280;5078;42.544;22.966;2023-05-02T13:06:08;94000.09;;;21.77;34.79
10079;BME280;5078;42.544;22.966;2023-05-02T13:08:35;93999.63;;;21.97;34.19
10079;BME280;5078;42.544;22.966;2023-05-02T13:11:03;93994.81;;;22.16;34.09